Offerle, Kansas
Current Conditions -  °F | °C
As of 2:52 AM on Friday 31 Oct 2014 (Local Time) from KDDC Reporting Station
Clear Clear  
Wind Chill: 33°   Ceiling: Unl
Heat Index: 40°   Visibility: 10mi
Dew Point: 32°   Wind: 12mph
Humidity: 73%   Direction: 10°N
Pressure: 30.41"   Gusts: NA
Location:  37.89°N, 99.56°W
Report Text: KDDC 310752Z AUTO 01010KT 10SM CLR 04/00 A3041 RMK AO2 SLP291 T00440000
Loading
Personal Weather Stations






























Interactive Weather Map
Tropical Storm Tracking
New forecast layout! Learn more

10-Day Weather Forecast

Advertisements
Track Severe Weather on mobile